Terminal Aerodrome Forecast
Issued by NWS Duluth, MN

Home | Current Version | Previous Version | Text Only | Print | Product List | Glossary On
Versions: 1 2 3 4 5 6 7 8 9 10 11 12 13 14 15 16 17 18 19 20 21 22 23 24 25 26 27 28
000
FTUS43 KDLH 281700
TAFDLH
TAF
KDLH 281724Z 2818/2918 18010G20KT P6SM SKC
     FM290200 20017G23KT P6SM BKN140 WS020/21045KT
     FM291000 23021G28KT 4SM -RA BR BKN025 OVC040
     FM291700 30017G27KT P6SM -RA SCT025 OVC040=

USA.gov is the U.S. government's official web portal to all federal, state and local government web resources and services.